Hlavní strana
METAR-TAF:

METAR-TAF

Letiště :

Nižnij Novgorod, Rusko

zeměpisná šířka: 56-19-48N, zeměpisná délka: 044-00E, výška: 78 m

Aktuální stav počasí

Zpráva byla vytvořena před 37 minutami, v 22:00 UTC
Západní vítr 6 kt
Teplota 1°C
Vlhkost vzduchu 59%
Tlak 1004 hPa
Viditelnost 10 km a více
Žádná oblačnost pod 1500 m, nevyskytují se cumulonimby.

METAR: UWGG 252200Z 27003MPS CAVOK 01/M06 Q1004 R36R/090060 NOSIG

Čas: 01:37 (22:37 UTC)

Předpověď počasí

Zpráva byla vytvořena před 2 hodinami a 46 minutami, v 19:51 UTC
Předpověď platná od 25 v 21 UTC do 26 v 21 UTC
Jihozápadní vítr 6 kt
Viditelnost: 6000 m
Oblačno až skoro zataženo ve výšce 1500 ft
Dočasný
od 25 v 21 UTC do 26 v 15 UTC
Jižní vítr 10 kt s nárazy do 19 kt
Viditelnost: 3500 m
Oblačno až skoro zataženo ve výšce 1100 ft, Cumulonimbus.
slabé sněhové přeháňky, déšť

TAF: UWGG 251951Z 2521/2621 23003MPS 6000 BKN015 TX05/2612Z TNM00/2521Z TEMPO 2521/2615 19005G10MPS 3500 -SHSNRA BKN011CB

Stav a předpovědi počasí z více než 4 000 letišť (zprávy METAR a TAF).

Červené a žluté tečky na mapě představují dostupné meteorologické stanice.

Když kurzor umístíte na tečku, zobrazí se název stanice.

Pak kliknutím zobrazíte stav a předpověď počasí.

Chcete-li změnit mapu, kliknutím na zelené tlačítko se znaménkem +mapu přiblížíte, kliknutím na zelené tlačítko se znaménkem – mapu oddálíte a kliknutím na zelené šipky přejdete na sousední mapy.


METAR-TAF: